sensor_id;sensor_type;location;lat;lon;timestamp;pressure;altitude;pressure_sealevel;temperature;humidity
54194;BME280;40102;50.906;6.972;2023-04-28T00:02:11;100659.63;;;12.70;55.90
54194;BME280;40102;50.906;6.972;2023-04-28T00:04:36;100655.31;;;12.68;56.35
54194;BME280;40102;50.906;6.972;2023-04-28T00:07:02;100654.34;;;12.69;56.00
54194;BME280;40102;50.906;6.972;2023-04-28T00:09:27;100640.06;;;12.68;55.85
54194;BME280;40102;50.906;6.972;2023-04-28T00:11:52;100640.72;;;12.72;56.39
54194;BME280;40102;50.906;6.972;2023-04-28T00:14:18;100641.69;;;12.71;55.79
54194;BME280;40102;50.906;6.972;2023-04-28T00:16:43;100631.25;;;12.66;56.09
54194;BME280;40102;50.906;6.972;2023-04-28T00:19:08;100641.34;;;12.62;55.77
54194;BME280;40102;50.906;6.972;2023-04-28T00:21:34;100651.50;;;12.57;55.96
54194;BME280;40102;50.906;6.972;2023-04-28T00:23:59;100638.19;;;12.56;56.42
54194;BME280;40102;50.906;6.972;2023-04-28T00:26:24;100638.00;;;12.59;57.53
54194;BME280;40102;50.906;6.972;2023-04-28T00:28:50;100631.00;;;12.56;57.41
54194;BME280;40102;50.906;6.972;2023-04-28T00:31:15;100616.06;;;12.52;57.11
54194;BME280;40102;50.906;6.972;2023-04-28T00:33:42;100624.69;;;12.57;58.24
54194;BME280;40102;50.906;6.972;2023-04-28T00:36:09;100615.22;;;12.52;57.87
54194;BME280;40102;50.906;6.972;2023-04-28T00:38:35;100600.56;;;12.43;57.53
54194;BME280;40102;50.906;6.972;2023-04-28T00:41:01;100602.84;;;12.49;57.24
54194;BME280;40102;50.906;6.972;2023-04-28T00:43:27;100596.94;;;12.44;57.68
54194;BME280;40102;50.906;6.972;2023-04-28T00:45:52;100588.88;;;12.44;58.01
54194;BME280;40102;50.906;6.972;2023-04-28T00:48:18;100600.47;;;12.45;58.32
54194;BME280;40102;50.906;6.972;2023-04-28T00:50:44;100589.75;;;12.45;58.44
54194;BME280;40102;50.906;6.972;2023-04-28T00:53:11;100602.66;;;12.52;58.09
54194;BME280;40102;50.906;6.972;2023-04-28T00:55:39;100591.66;;;12.43;58.38
54194;BME280;40102;50.906;6.972;2023-04-28T00:58:05;100591.09;;;12.38;58.16
54194;BME280;40102;50.906;6.972;2023-04-28T01:00:32;100581.13;;;12.40;58.46
54194;BME280;40102;50.906;6.972;2023-04-28T01:02:58;100592.22;;;12.48;57.92
54194;BME280;40102;50.906;6.972;2023-04-28T01:05:24;100583.13;;;12.50;57.83
54194;BME280;40102;50.906;6.972;2023-04-28T01:07:50;100584.06;;;12.49;58.06
54194;BME280;40102;50.906;6.972;2023-04-28T01:10:16;100581.59;;;12.46;59.61
54194;BME280;40102;50.906;6.972;2023-04-28T01:12:41;100581.69;;;12.45;59.97
54194;BME280;40102;50.906;6.972;2023-04-28T01:15:11;100587.06;;;12.45;60.67
54194;BME280;40102;50.906;6.972;2023-04-28T01:17:39;100577.19;;;12.45;60.63
54194;BME280;40102;50.906;6.972;2023-04-28T01:20:05;100577.19;;;12.45;61.93
54194;BME280;40102;50.906;6.972;2023-04-28T01:22:31;100577.94;;;12.47;62.49
54194;BME280;40102;50.906;6.972;2023-04-28T01:24:56;100588.88;;;12.44;63.78
54194;BME280;40102;50.906;6.972;2023-04-28T01:27:24;100589.94;;;12.42;64.35
54194;BME280;40102;50.906;6.972;2023-04-28T01:29:50;100596.94;;;12.44;65.52
54194;BME280;40102;50.906;6.972;2023-04-28T01:32:15;100578.56;;;12.38;66.68
54194;BME280;40102;50.906;6.972;2023-04-28T01:34:40;100577.03;;;12.34;67.63
54194;BME280;40102;50.906;6.972;2023-04-28T01:37:05;100576.16;;;12.33;68.42
54194;BME280;40102;50.906;6.972;2023-04-28T01:39:31;100573.59;;;12.32;69.19
54194;BME280;40102;50.906;6.972;2023-04-28T01:41:56;100576.38;;;12.30;69.02
54194;BME280;40102;50.906;6.972;2023-04-28T01:44:22;100570.34;;;12.27;69.12
54194;BME280;40102;50.906;6.972;2023-04-28T01:46:47;100567.66;;;12.27;69.37
54194;BME280;40102;50.906;6.972;2023-04-28T01:49:12;100561.59;;;12.38;69.10
54194;BME280;40102;50.906;6.972;2023-04-28T01:51:38;100557.25;;;12.49;68.58
54194;BME280;40102;50.906;6.972;2023-04-28T01:54:04;100563.41;;;12.64;67.87
54194;BME280;40102;50.906;6.972;2023-04-28T01:56:30;100564.53;;;12.74;67.93
54194;BME280;40102;50.906;6.972;2023-04-28T01:58:55;100571.63;;;12.75;67.89
54194;BME280;40102;50.906;6.972;2023-04-28T02:01:21;100565.28;;;12.76;67.77
54194;BME280;40102;50.906;6.972;2023-04-28T02:03:46;100568.41;;;12.83;67.53
54194;BME280;40102;50.906;6.972;2023-04-28T02:06:13;100583.69;;;12.95;67.12
54194;BME280;40102;50.906;6.972;2023-04-28T02:08:38;100581.56;;;13.00;67.22
54194;BME280;40102;50.906;6.972;2023-04-28T02:11:03;100578.66;;;13.03;67.05
54194;BME280;40102;50.906;6.972;2023-04-28T02:13:29;100568.38;;;13.10;66.51
54194;BME280;40102;50.906;6.972;2023-04-28T02:15:54;100573.53;;;13.13;66.01
54194;BME280;40102;50.906;6.972;2023-04-28T02:18:20;100572.47;;;13.15;65.51
54194;BME280;40102;50.906;6.972;2023-04-28T02:20:45;100574.00;;;13.19;65.40
54194;BME280;40102;50.906;6.972;2023-04-28T02:23:11;100567.66;;;13.20;65.10
54194;BME280;40102;50.906;6.972;2023-04-28T02:25:36;100578.94;;;13.25;66.34
54194;BME280;40102;50.906;6.972;2023-04-28T02:28:01;100578.63;;;13.17;67.13
54194;BME280;40102;50.906;6.972;2023-04-28T02:30:27;100570.75;;;13.14;67.13
54194;BME280;40102;50.906;6.972;2023-04-28T02:32:52;100573.78;;;13.22;67.34
54194;BME280;40102;50.906;6.972;2023-04-28T02:35:18;100557.03;;;13.19;67.37
54194;BME280;40102;50.906;6.972;2023-04-28T02:37:43;100556.16;;;13.18;67.86
54194;BME280;40102;50.906;6.972;2023-04-28T02:40:09;100552.63;;;13.18;67.95
54194;BME280;40102;50.906;6.972;2023-04-28T02:42:34;100552.50;;;13.19;68.54
54194;BME280;40102;50.906;6.972;2023-04-28T02:45:00;100550.69;;;13.20;68.79
54194;BME280;40102;50.906;6.972;2023-04-28T02:47:25;100556.16;;;13.18;68.74
54194;BME280;40102;50.906;6.972;2023-04-28T02:49:50;100558.84;;;13.18;68.32
54194;BME280;40102;50.906;6.972;2023-04-28T02:52:16;100567.56;;;13.22;68.32
54194;BME280;40102;50.906;6.972;2023-04-28T02:54:42;100551.06;;;13.14;68.63
54194;BME280;40102;50.906;6.972;2023-04-28T02:57:07;100549.34;;;13.13;68.36
54194;BME280;40102;50.906;6.972;2023-04-28T02:59:33;100553.88;;;13.12;67.85
54194;BME280;40102;50.906;6.972;2023-04-28T03:01:59;100545.34;;;12.93;68.15
54194;BME280;40102;50.906;6.972;2023-04-28T03:04:24;100543.72;;;12.78;68.49
54194;BME280;40102;50.906;6.972;2023-04-28T03:06:50;100541.09;;;12.63;69.13
54194;BME280;40102;50.906;6.972;2023-04-28T03:09:15;100535.88;;;12.48;69.56
54194;BME280;40102;50.906;6.972;2023-04-28T03:11:40;100533.91;;;12.37;70.18
54194;BME280;40102;50.906;6.972;2023-04-28T03:14:06;100536.44;;;12.26;70.34
54194;BME280;40102;50.906;6.972;2023-04-28T03:16:32;100530.72;;;12.18;71.25
54194;BME280;40102;50.906;6.972;2023-04-28T03:18:57;100537.44;;;12.11;71.50
54194;BME280;40102;50.906;6.972;2023-04-28T03:21:23;100526.44;;;12.01;72.08
54194;BME280;40102;50.906;6.972;2023-04-28T03:23:50;100534.13;;;11.93;72.60
54194;BME280;40102;50.906;6.972;2023-04-28T03:26:15;100523.91;;;11.85;73.24
54194;BME280;40102;50.906;6.972;2023-04-28T03:28:41;100523.41;;;11.93;74.05
54194;BME280;40102;50.906;6.972;2023-04-28T03:31:06;100528.84;;;12.06;73.68
54194;BME280;40102;50.906;6.972;2023-04-28T03:33:31;100521.81;;;12.17;73.41
54194;BME280;40102;50.906;6.972;2023-04-28T03:35:56;100512.88;;;12.31;73.09
54194;BME280;40102;50.906;6.972;2023-04-28T03:38:22;100516.56;;;12.43;73.01
54194;BME280;40102;50.906;6.972;2023-04-28T03:40:47;100508.97;;;12.49;72.62
54194;BME280;40102;50.906;6.972;2023-04-28T03:43:12;100522.97;;;12.67;71.76
54194;BME280;40102;50.906;6.972;2023-04-28T03:45:39;100493.66;;;12.64;71.22
54194;BME280;40102;50.906;6.972;2023-04-28T03:48:05;100509.03;;;12.75;70.90
54194;BME280;40102;50.906;6.972;2023-04-28T03:50:30;100484.13;;;12.73;70.62
54194;BME280;40102;50.906;6.972;2023-04-28T03:52:55;100492.41;;;12.82;70.46
54194;BME280;40102;50.906;6.972;2023-04-28T03:55:21;100482.84;;;12.78;70.36
54194;BME280;40102;50.906;6.972;2023-04-28T03:57:46;100477.03;;;12.72;70.90
54194;BME280;40102;50.906;6.972;2023-04-28T04:00:12;100471.88;;;12.69;71.36
54194;BME280;40102;50.906;6.972;2023-04-28T04:02:38;100472.09;;;12.65;71.33
54194;BME280;40102;50.906;6.972;2023-04-28T04:05:03;100470.38;;;12.64;70.90
54194;BME280;40102;50.906;6.972;2023-04-28T04:07:29;100462.72;;;12.58;71.44
54194;BME280;40102;50.906;6.972;2023-04-28T04:09:54;100447.81;;;12.54;71.20
54194;BME280;40102;50.906;6.972;2023-04-28T04:12:20;100424.72;;;12.52;70.97
54194;BME280;40102;50.906;6.972;2023-04-28T04:14:45;100428.03;;;12.43;71.18
54194;BME280;40102;50.906;6.972;2023-04-28T04:17:10;100427.47;;;12.25;71.05
54194;BME280;40102;50.906;6.972;2023-04-28T04:19:36;100418.22;;;12.16;71.50
54194;BME280;40102;50.906;6.972;2023-04-28T04:22:03;100404.41;;;11.95;72.37
54194;BME280;40102;50.906;6.972;2023-04-28T04:24:29;100401.78;;;11.81;73.04
54194;BME280;40102;50.906;6.972;2023-04-28T04:26:54;100425.50;;;11.73;73.60
54194;BME280;40102;50.906;6.972;2023-04-28T04:29:19;100435.50;;;11.57;74.23
54194;BME280;40102;50.906;6.972;2023-04-28T04:31:45;100450.03;;;11.53;74.68
54194;BME280;40102;50.906;6.972;2023-04-28T04:34:10;100463.41;;;11.67;74.36
54194;BME280;40102;50.906;6.972;2023-04-28T04:36:36;100454.72;;;11.78;73.72
54194;BME280;40102;50.906;6.972;2023-04-28T04:39:01;100450.88;;;11.82;72.89
54194;BME280;40102;50.906;6.972;2023-04-28T04:41:26;100442.53;;;11.86;72.16
54194;BME280;40102;50.906;6.972;2023-04-28T04:43:52;100435.38;;;11.87;72.27
54194;BME280;40102;50.906;6.972;2023-04-28T04:46:17;100445.88;;;11.76;72.04
54194;BME280;40102;50.906;6.972;2023-04-28T04:48:42;100452.41;;;11.72;72.87
54194;BME280;40102;50.906;6.972;2023-04-28T04:51:08;100452.31;;;11.73;72.88
54194;BME280;40102;50.906;6.972;2023-04-28T04:53:33;100440.47;;;11.63;73.22
54194;BME280;40102;50.906;6.972;2023-04-28T04:55:59;100443.16;;;11.49;73.68
54194;BME280;40102;50.906;6.972;2023-04-28T04:58:25;100429.03;;;11.32;74.69
54194;BME280;40102;50.906;6.972;2023-04-28T05:00:51;100432.84;;;11.28;75.35
54194;BME280;40102;50.906;6.972;2023-04-28T05:03:16;100444.72;;;11.24;75.91
54194;BME280;40102;50.906;6.972;2023-04-28T05:05:42;100462.88;;;11.19;76.65
54194;BME280;40102;50.906;6.972;2023-04-28T05:08:09;100447.88;;;11.02;77.38
54194;BME280;40102;50.906;6.972;2023-04-28T05:10:35;100446.25;;;11.00;77.66
54194;BME280;40102;50.906;6.972;2023-04-28T05:13:00;100449.09;;;10.97;77.93
54194;BME280;40102;50.906;6.972;2023-04-28T05:15:26;100447.09;;;11.00;77.29
54194;BME280;40102;50.906;6.972;2023-04-28T05:17:51;100441.84;;;10.99;78.31
54194;BME280;40102;50.906;6.972;2023-04-28T05:20:16;100443.19;;;10.92;78.59
54194;BME280;40102;50.906;6.972;2023-04-28T05:22:42;100442.13;;;10.94;78.62
54194;BME280;40102;50.906;6.972;2023-04-28T05:25:07;100447.38;;;10.96;79.21
54194;BME280;40102;50.906;6.972;2023-04-28T05:27:33;100438.97;;;10.88;79.96
54194;BME280;40102;50.906;6.972;2023-04-28T05:30:01;100434.00;;;10.96;80.17
54194;BME280;40102;50.906;6.972;2023-04-28T05:32:27;100432.84;;;11.00;79.56
54194;BME280;40102;50.906;6.972;2023-04-28T05:34:52;100433.81;;;10.99;79.89
54194;BME280;40102;50.906;6.972;2023-04-28T05:37:18;100434.97;;;10.95;80.54
54194;BME280;40102;50.906;6.972;2023-04-28T05:39:43;100433.03;;;10.83;82.41
54194;BME280;40102;50.906;6.972;2023-04-28T05:42:08;100434.28;;;10.77;83.50
54194;BME280;40102;50.906;6.972;2023-04-28T05:44:34;100435.78;;;10.67;84.33
54194;BME280;40102;50.906;6.972;2023-04-28T05:46:59;100435.19;;;10.62;85.84
54194;BME280;40102;50.906;6.972;2023-04-28T05:49:24;100417.63;;;10.58;86.40
54194;BME280;40102;50.906;6.972;2023-04-28T05:51:50;100418.88;;;10.66;86.02
54194;BME280;40102;50.906;6.972;2023-04-28T05:54:16;100429.97;;;10.75;85.79
54194;BME280;40102;50.906;6.972;2023-04-28T05:56:41;100427.00;;;10.79;85.41
54194;BME280;40102;50.906;6.972;2023-04-28T05:59:06;100412.69;;;10.80;85.62
54194;BME280;40102;50.906;6.972;2023-04-28T06:01:32;100420.97;;;10.76;86.24
54194;BME280;40102;50.906;6.972;2023-04-28T06:03:57;100414.69;;;10.77;86.66
54194;BME280;40102;50.906;6.972;2023-04-28T06:06:23;100415.25;;;10.82;86.34
54194;BME280;40102;50.906;6.972;2023-04-28T06:08:48;100419.75;;;10.81;86.50
54194;BME280;40102;50.906;6.972;2023-04-28T06:11:14;100422.78;;;10.61;87.27
54194;BME280;40102;50.906;6.972;2023-04-28T06:13:39;100422.78;;;10.61;87.83
54194;BME280;40102;50.906;6.972;2023-04-28T06:16:05;100417.53;;;10.59;88.37
54194;BME280;40102;50.906;6.972;2023-04-28T06:18:31;100431.56;;;10.63;87.81
54194;BME280;40102;50.906;6.972;2023-04-28T06:20:57;100433.00;;;10.68;88.17
54194;BME280;40102;50.906;6.972;2023-04-28T06:23:22;100429.75;;;10.63;88.18
54194;BME280;40102;50.906;6.972;2023-04-28T06:25:48;100417.53;;;10.74;87.99
54194;BME280;40102;50.906;6.972;2023-04-28T06:28:13;100421.66;;;10.79;87.66
54194;BME280;40102;50.906;6.972;2023-04-28T06:30:39;100425.59;;;10.88;87.29
54194;BME280;40102;50.906;6.972;2023-04-28T06:33:04;100433.13;;;10.95;86.95
54194;BME280;40102;50.906;6.972;2023-04-28T06:35:30;100432.09;;;10.84;86.19
54194;BME280;40102;50.906;6.972;2023-04-28T06:37:55;100413.25;;;10.85;86.45
54194;BME280;40102;50.906;6.972;2023-04-28T06:40:21;100438.09;;;10.87;86.93
54194;BME280;40102;50.906;6.972;2023-04-28T06:42:46;100423.56;;;10.77;86.78
54194;BME280;40102;50.906;6.972;2023-04-28T06:45:11;100436.66;;;10.82;87.57
54194;BME280;40102;50.906;6.972;2023-04-28T06:47:37;100424.25;;;10.81;87.09
54194;BME280;40102;50.906;6.972;2023-04-28T06:50:05;100430.63;;;10.78;86.81
54194;BME280;40102;50.906;6.972;2023-04-28T06:52:30;100435.63;;;10.84;87.50
54194;BME280;40102;50.906;6.972;2023-04-28T06:54:56;100422.16;;;10.86;86.56
54194;BME280;40102;50.906;6.972;2023-04-28T06:57:21;100419.56;;;10.84;86.79
54194;BME280;40102;50.906;6.972;2023-04-28T06:59:46;100416.41;;;10.92;87.46
54194;BME280;40102;50.906;6.972;2023-04-28T07:02:12;100424.94;;;10.98;86.94
54194;BME280;40102;50.906;6.972;2023-04-28T07:04:37;100425.97;;;11.10;86.82
54194;BME280;40102;50.906;6.972;2023-04-28T07:07:02;100432.47;;;11.20;86.30
54194;BME280;40102;50.906;6.972;2023-04-28T07:09:32;100423.59;;;11.20;85.71
54194;BME280;40102;50.906;6.972;2023-04-28T07:11:58;100434.38;;;11.32;85.09
54194;BME280;40102;50.906;6.972;2023-04-28T07:14:23;100446.31;;;11.41;85.28
54194;BME280;40102;50.906;6.972;2023-04-28T07:16:48;100439.06;;;11.43;84.17
54194;BME280;40102;50.906;6.972;2023-04-28T07:19:14;100431.03;;;11.43;83.47
54194;BME280;40102;50.906;6.972;2023-04-28T07:21:39;100433.50;;;11.46;83.35
54194;BME280;40102;50.906;6.972;2023-04-28T07:24:06;100435.72;;;11.40;83.83
54194;BME280;40102;50.906;6.972;2023-04-28T07:26:32;100432.94;;;11.41;83.94
54194;BME280;40102;50.906;6.972;2023-04-28T07:28:57;100440.28;;;11.52;83.01
54194;BME280;40102;50.906;6.972;2023-04-28T07:31:23;100419.56;;;11.41;83.29
54194;BME280;40102;50.906;6.972;2023-04-28T07:33:48;100444.13;;;11.48;82.98
54194;BME280;40102;50.906;6.972;2023-04-28T07:36:14;100446.59;;;11.51;83.08
54194;BME280;40102;50.906;6.972;2023-04-28T07:38:39;100439.22;;;11.54;84.17
54194;BME280;40102;50.906;6.972;2023-04-28T07:41:05;100443.34;;;11.60;85.09
54194;BME280;40102;50.906;6.972;2023-04-28T07:43:30;100418.00;;;11.51;85.22
54194;BME280;40102;50.906;6.972;2023-04-28T07:45:55;100433.59;;;11.59;84.45
54194;BME280;40102;50.906;6.972;2023-04-28T07:48:21;100424.50;;;11.61;84.00
54194;BME280;40102;50.906;6.972;2023-04-28T07:50:46;100436.63;;;11.67;83.88
54194;BME280;40102;50.906;6.972;2023-04-28T07:53:12;100439.88;;;11.72;83.88
54194;BME280;40102;50.906;6.972;2023-04-28T07:55:37;100441.88;;;11.83;83.45
54194;BME280;40102;50.906;6.972;2023-04-28T07:58:06;100436.41;;;11.84;83.59
54194;BME280;40102;50.906;6.972;2023-04-28T08:00:31;100428.09;;;11.89;83.17
54194;BME280;40102;50.906;6.972;2023-04-28T08:02:56;100423.28;;;11.94;82.92
54194;BME280;40102;50.906;6.972;2023-04-28T08:05:22;100430.81;;;12.02;83.41
54194;BME280;40102;50.906;6.972;2023-04-28T08:07:47;100426.97;;;12.06;83.04
54194;BME280;40102;50.906;6.972;2023-04-28T08:10:12;100420.91;;;12.16;82.55
54194;BME280;40102;50.906;6.972;2023-04-28T08:12:38;100434.53;;;12.26;82.59
54194;BME280;40102;50.906;6.972;2023-04-28T08:15:05;100421.28;;;12.37;83.48
54194;BME280;40102;50.906;6.972;2023-04-28T08:17:30;100419.78;;;12.46;83.49
54194;BME280;40102;50.906;6.972;2023-04-28T08:19:56;100434.81;;;12.48;82.69
54194;BME280;40102;50.906;6.972;2023-04-28T08:22:21;100445.97;;;12.55;81.59
54194;BME280;40102;50.906;6.972;2023-04-28T08:24:46;100424.72;;;12.52;83.13
54194;BME280;40102;50.906;6.972;2023-04-28T08:27:12;100427.66;;;12.61;81.96
54194;BME280;40102;50.906;6.972;2023-04-28T08:29:40;100427.53;;;12.63;82.41
54194;BME280;40102;50.906;6.972;2023-04-28T08:32:05;100412.63;;;12.59;83.02
54194;BME280;40102;50.906;6.972;2023-04-28T08:34:31;100419.19;;;12.68;82.73
54194;BME280;40102;50.906;6.972;2023-04-28T08:36:57;100425.09;;;12.73;82.88
54194;BME280;40102;50.906;6.972;2023-04-28T08:39:22;100415.00;;;12.76;83.18
54194;BME280;40102;50.906;6.972;2023-04-28T08:41:50;100431.41;;;12.84;83.79
54194;BME280;40102;50.906;6.972;2023-04-28T08:44:15;100412.53;;;12.86;83.98
54194;BME280;40102;50.906;6.972;2023-04-28T08:46:42;100427.78;;;12.98;83.71
54194;BME280;40102;50.906;6.972;2023-04-28T08:49:15;100433.91;;;13.00;83.53
54194;BME280;40102;50.906;6.972;2023-04-28T08:51:49;100440.34;;;13.10;83.61
54194;BME280;40102;50.906;6.972;2023-04-28T08:54:18;100443.47;;;13.17;84.41
54194;BME280;40102;50.906;6.972;2023-04-28T08:56:45;100438.97;;;13.17;83.66
54194;BME280;40102;50.906;6.972;2023-04-28T08:59:11;100428.22;;;13.17;84.23
54194;BME280;40102;50.906;6.972;2023-04-28T09:01:37;100438.00;;;13.18;86.20
54194;BME280;40102;50.906;6.972;2023-04-28T09:04:03;100444.41;;;13.16;87.92
54194;BME280;40102;50.906;6.972;2023-04-28T09:06:35;100452.47;;;13.16;89.51
54194;BME280;40102;50.906;6.972;2023-04-28T09:11:50;100431.84;;;13.04;90.46
54194;BME280;40102;50.906;6.972;2023-04-28T09:14:16;100444.00;;;12.96;90.95
54194;BME280;40102;50.906;6.972;2023-04-28T09:16:41;100441.84;;;13.02;90.84
54194;BME280;40102;50.906;6.972;2023-04-28T09:19:06;100449.69;;;13.05;90.82
54194;BME280;40102;50.906;6.972;2023-04-28T09:21:32;100435.72;;;13.00;91.28
54194;BME280;40102;50.906;6.972;2023-04-28T09:23:57;100446.78;;;13.08;91.50
54194;BME280;40102;50.906;6.972;2023-04-28T09:26:23;100441.72;;;13.03;92.12
54194;BME280;40102;50.906;6.972;2023-04-28T09:28:49;100428.75;;;12.97;93.35
54194;BME280;40102;50.906;6.972;2023-04-28T09:31:24;100448.41;;;12.97;93.56
54194;BME280;40102;50.906;6.972;2023-04-28T09:33:56;100433.69;;;12.90;93.98
54194;BME280;40102;50.906;6.972;2023-04-28T09:36:28;100424.97;;;12.87;93.89
54194;BME280;40102;50.906;6.972;2023-04-28T09:38:58;100429.50;;;12.86;95.15
54194;BME280;40102;50.906;6.972;2023-04-28T09:44:13;100420.16;;;12.79;98.10
54194;BME280;40102;50.906;6.972;2023-04-28T09:46:39;100431.75;;;12.80;99.15
54194;BME280;40102;50.906;6.972;2023-04-28T09:49:05;100423.91;;;12.77;99.80
54194;BME280;40102;50.906;6.972;2023-04-28T09:51:30;100427.56;;;12.76;100.00
54194;BME280;40102;50.906;6.972;2023-04-28T09:53:59;100423.81;;;12.78;100.00
54194;BME280;40102;50.906;6.972;2023-04-28T09:56:26;100430.78;;;12.81;100.00
54194;BME280;40102;50.906;6.972;2023-04-28T09:58:52;100418.31;;;12.80;100.00
54194;BME280;40102;50.906;6.972;2023-04-28T10:01:18;100414.78;;;12.79;100.00
54194;BME280;40102;50.906;6.972;2023-04-28T10:03:44;100425.94;;;12.86;99.68
54194;BME280;40102;50.906;6.972;2023-04-28T10:06:16;100426.16;;;12.83;99.97
54194;BME280;40102;50.906;6.972;2023-04-28T10:08:41;100428.84;;;12.83;99.74
54194;BME280;40102;50.906;6.972;2023-04-28T10:11:07;100428.75;;;12.84;98.79
54194;BME280;40102;50.906;6.972;2023-04-28T10:13:34;100431.97;;;12.89;98.81
54194;BME280;40102;50.906;6.972;2023-04-28T10:16:00;100422.94;;;12.90;99.39
54194;BME280;40102;50.906;6.972;2023-04-28T10:18:27;100423.69;;;12.92;99.20
54194;BME280;40102;50.906;6.972;2023-04-28T10:21:00;100419.81;;;12.96;99.84
54194;BME280;40102;50.906;6.972;2023-04-28T10:26:22;100420.78;;;12.95;100.00
54194;BME280;40102;50.906;6.972;2023-04-28T10:28:51;100432.81;;;13.03;100.00
54194;BME280;40102;50.906;6.972;2023-04-28T10:31:18;100412.22;;;12.90;100.00
54194;BME280;40102;50.906;6.972;2023-04-28T10:33:48;100407.47;;;12.94;100.00
54194;BME280;40102;50.906;6.972;2023-04-28T10:36:48;100414.13;;;13.01;100.00
54194;BME280;40102;50.906;6.972;2023-04-28T10:39:15;100415.31;;;12.97;100.00
54194;BME280;40102;50.906;6.972;2023-04-28T10:41:41;100415.84;;;13.02;100.00
54194;BME280;40102;50.906;6.972;2023-04-28T10:47:07;100431.78;;;13.18;100.00
54194;BME280;40102;50.906;6.972;2023-04-28T10:55:33;100418.03;;;13.22;100.00
54194;BME280;40102;50.906;6.972;2023-04-28T11:00:46;100406.53;;;13.20;100.00
54194;BME280;40102;50.906;6.972;2023-04-28T11:22:00;100388.97;;;13.77;100.00
54194;BME280;40102;50.906;6.972;2023-04-28T11:24:27;100389.38;;;13.83;100.00
54194;BME280;40102;50.906;6.972;2023-04-28T11:26:53;100376.03;;;13.82;100.00
54194;BME280;40102;50.906;6.972;2023-04-28T11:29:33;100371.97;;;14.00;100.00
54194;BME280;40102;50.906;6.972;2023-04-28T11:32:00;100379.16;;;14.23;100.00
54194;BME280;40102;50.906;6.972;2023-04-28T11:34:25;100373.06;;;14.33;100.00
54194;BME280;40102;50.906;6.972;2023-04-28T11:36:51;100378.53;;;14.44;100.00
54194;BME280;40102;50.906;6.972;2023-04-28T11:39:24;100380.75;;;14.61;100.00
54194;BME280;40102;50.906;6.972;2023-04-28T11:41:50;100366.34;;;14.62;100.00
54194;BME280;40102;50.906;6.972;2023-04-28T11:44:22;100375.03;;;14.77;100.00
54194;BME280;40102;50.906;6.972;2023-04-28T11:46:49;100365.38;;;14.74;100.00
54194;BME280;40102;50.906;6.972;2023-04-28T11:49:17;100357.31;;;14.85;100.00
54194;BME280;40102;50.906;6.972;2023-04-28T11:51:43;100364.91;;;15.03;100.00
54194;BME280;40102;50.906;6.972;2023-04-28T11:54:19;100375.81;;;15.01;100.00
54194;BME280;40102;50.906;6.972;2023-04-28T11:56:45;100361.97;;;14.83;100.00
54194;BME280;40102;50.906;6.972;2023-04-28T11:59:11;100372.34;;;14.77;100.00
54194;BME280;40102;50.906;6.972;2023-04-28T12:01:51;100366.97;;;14.77;100.00
54194;BME280;40102;50.906;6.972;2023-04-28T12:04:27;100377.63;;;14.89;100.00
54194;BME280;40102;50.906;6.972;2023-04-28T12:07:19;100370.53;;;15.00;100.00
54194;BME280;40102;50.906;6.972;2023-04-28T12:12:32;100357.81;;;15.02;100.00
54194;BME280;40102;50.906;6.972;2023-04-28T12:15:06;100355.22;;;15.11;100.00
54194;BME280;40102;50.906;6.972;2023-04-28T12:20:03;100353.13;;;15.37;100.00
54194;BME280;40102;50.906;6.972;2023-04-28T12:22:29;100353.09;;;15.48;100.00
54194;BME280;40102;50.906;6.972;2023-04-28T12:25:15;100352.97;;;15.61;100.00
54194;BME280;40102;50.906;6.972;2023-04-28T12:28:06;100343.75;;;15.64;99.59
54194;BME280;40102;50.906;6.972;2023-04-28T12:30:33;100349.34;;;15.83;100.00
54194;BME280;40102;50.906;6.972;2023-04-28T12:32:59;100333.94;;;16.06;100.00
54194;BME280;40102;50.906;6.972;2023-04-28T12:35:26;100329.34;;;16.38;100.00
54194;BME280;40102;50.906;6.972;2023-04-28T12:37:52;100335.41;;;16.72;99.33
54194;BME280;40102;50.906;6.972;2023-04-28T12:40:19;100318.34;;;17.02;98.57
54194;BME280;40102;50.906;6.972;2023-04-28T12:42:44;100329.28;;;17.41;97.18
54194;BME280;40102;50.906;6.972;2023-04-28T12:45:10;100330.22;;;17.70;93.58
54194;BME280;40102;50.906;6.972;2023-04-28T12:47:36;100324.25;;;17.96;91.29
54194;BME280;40102;50.906;6.972;2023-04-28T12:50:03;100311.16;;;18.10;90.22
54194;BME280;40102;50.906;6.972;2023-04-28T12:52:28;100313.28;;;18.26;88.36
54194;BME280;40102;50.906;6.972;2023-04-28T12:54:57;100314.41;;;18.33;86.07
54194;BME280;40102;50.906;6.972;2023-04-28T12:57:23;100313.41;;;18.34;86.98
54194;BME280;40102;50.906;6.972;2023-04-28T12:59:48;100308.97;;;18.43;86.22
54194;BME280;40102;50.906;6.972;2023-04-28T13:02:14;100308.09;;;18.52;87.40
54194;BME280;40102;50.906;6.972;2023-04-28T13:04:40;100299.38;;;18.77;87.71
54194;BME280;40102;50.906;6.972;2023-04-28T13:07:15;100301.84;;;18.98;83.42
54194;BME280;40102;50.906;6.972;2023-04-28T13:09:42;100313.44;;;18.91;80.49
54194;BME280;40102;50.906;6.972;2023-04-28T13:12:08;100315.28;;;18.90;82.16
54194;BME280;40102;50.906;6.972;2023-04-28T13:14:33;100298.59;;;18.95;82.55
54194;BME280;40102;50.906;6.972;2023-04-28T13:16:59;100302.06;;;19.15;81.21
54194;BME280;40102;50.906;6.972;2023-04-28T13:19:24;100299.03;;;19.18;80.18
54194;BME280;40102;50.906;6.972;2023-04-28T13:21:49;100295.47;;;19.17;79.67
54194;BME280;40102;50.906;6.972;2023-04-28T13:24:15;100292.38;;;19.12;78.98
54194;BME280;40102;50.906;6.972;2023-04-28T13:26:40;100308.59;;;19.22;80.62
54194;BME280;40102;50.906;6.972;2023-04-28T13:29:08;100287.00;;;19.30;81.03